W4AKE Weather Reports


time (UTC)temp
C
wind
direction
speed
KPH
gust
KPH
rain 1hr
cm
rain 24hr
cm
rain mn
cm
humidity
%
barometer
mb
20200531071348 25 138 0.0 3.2 0.00 0.00 0.00 88 1013.7
20200531065427 24 171 0.0 0.0 0.00 0.00 0.00 90 1013.9
20200531063436 24 179 0.0 0.0 0.00 0.00 0.00 89 1014.0
20200531061925 24 179 0.0 0.0 0.00 0.00 0.00 89 1014.2
20200531055933 25 167 0.0 0.0 0.00 0.00 0.00 88 1014.3
20200531054424 25 167 0.0 0.0 0.00 0.00 0.00 87 1014.5
20200531052431 25 155 0.0 3.2 0.00 0.00 0.00 86 1014.7
20200531050431 25 157 0.0 6.4 0.00 0.00 0.00 85 1015.1
20200531044925 26 148 0.0 4.8 0.00 0.00 0.00 84 1015.2
20200531043411 26 137 3.2 8.0 0.00 0.00 0.00 84 1015.2
20200531041849 26 145 4.8 9.7 0.00 0.00 0.00 84 1015.3
20200531035918 26 153 3.2 9.7 0.00 0.00 0.00 84 1015.4
20200531034414 26 146 3.2 11.3 0.00 0.00 0.00 83 1015.4
20200531032905 26 174 3.2 11.3 0.00 0.00 0.00 83 1015.6
20200531030923 26 93 1.6 9.7 0.00 0.00 0.00 82 1015.6
20200531025401 26 84 1.6 11.3 0.00 0.00 0.00 82 1015.5
20200531023411 26 108 3.2 11.3 0.00 0.00 0.00 82 1015.4
20200531021415 26 167 3.2 12.9 0.00 0.00 0.00 83 1015.4
20200531015422 26 96 4.8 12.9 0.00 0.00 0.00 84 1015.1
20200531013904 26 103 6.4 17.7 0.00 0.00 0.00 84 1014.8
20200531011918 26 99 4.8 14.5 0.00 0.00 0.00 84 1014.7
20200531010357 26 105 8.0 16.1 0.00 0.00 0.00 83 1014.5
20200531004418 26 86 6.4 16.1 0.00 0.00 0.00 83 1014.3
20200531002914 26 141 4.8 14.5 0.00 0.00 0.00 82 1014.2
20200531000918 27 194 8.0 17.7 0.00 0.00 0.00 82 1013.8
20200530235412 27 121 8.0 19.3 0.00 0.00 0.00 81 1013.5
20200530233910 27 184 8.0 16.1 0.00 0.00 0.00 81 1013.4
20200530231921 27 101 3.2 16.1 0.00 0.00 0.00 80 1013.2
20200530230410 27 110 9.7 17.7 0.00 0.00 0.00 79 1013.1
20200530224431 27 146 4.8 16.1 0.00 0.00 0.00 79 1013.2
20200530222855 27 171 4.8 19.3 0.00 0.00 0.00 77 1013.4
20200530221126 28 142 9.7 22.5 0.00 0.00 0.00 76 1013.3
20200530213902 28 91 8.0 20.9 0.00 0.00 0.00 74 1013.0
20200530211911 28 137 4.8 20.9 0.00 0.00 0.00 75 1013.0
20200530205908 29 160 9.7 20.9 0.00 0.00 0.00 74 1013.0
20200530204405 28 125 11.3 24.1 0.00 0.00 0.00 76 1013.3
20200530202404 29 94 8.0 19.3 0.00 0.00 0.00 74 1013.6
20200530200856 29 122 12.9 20.9 0.00 0.00 0.00 71 1013.7
20200530194905 29 120 9.7 19.3 0.00 0.00 0.00 73 1013.9
20200530193401 29 117 9.7 20.9 0.00 0.00 0.00 74 1014.1
20200530191851 28 63 8.0 22.5 0.00 0.00 0.00 79 1014.1
20200530185902 28 117 12.9 22.5 0.00 0.00 0.00 79 1014.3
20200530184358 28 75 11.3 19.3 0.00 0.00 0.00 78 1014.5
20200530182839 28 120 9.7 17.7 0.00 0.00 0.00 78 1014.6
20200530181334 29 100 11.3 20.9 0.00 0.00 0.00 75 1014.6
20200530175406 29 122 8.0 19.3 0.00 0.00 0.00 74 1014.8
20200530173402 29 89 9.7 19.3 0.00 0.00 0.00 72 1014.9
20200530171400 29 141 9.7 22.5 0.00 0.00 0.00 74 1015.0
20200530165420 28 111 6.4 17.7 0.00 0.00 0.00 75 1015.2
20200530163421 28 105 9.7 22.5 0.00 0.00 0.00 79 1015.2
20200530161900 28 330 8.0 20.9 0.00 0.00 0.00 78 1015.2
20200530155903 27 114 14.5 24.1 0.00 0.00 0.00 79 1015.4
20200530153918 28 93 4.8 20.9 0.00 0.00 0.00 78 1015.5
20200530151928 28 83 9.7 19.3 0.00 0.00 0.00 77 1015.6
20200530145425 28 79 8.0 17.7 0.00 0.00 0.00 78 1015.6
20200530143919 28 85 4.8 19.3 0.00 0.00 0.00 77 1015.7
20200530142409 27 68 8.0 17.7 0.00 0.00 0.00 78 1015.7
20200530140412 27 176 6.4 17.7 0.00 0.00 0.00 80 1015.7
20200530134411 27 103 11.3 20.9 0.00 0.00 0.00 80 1015.7
20200530132905 27 98 9.7 17.7 0.00 0.00 0.00 80 1015.7
20200530130909 27 103 12.9 20.9 0.00 0.00 0.00 80 1015.7
20200530124920 27 91 9.7 19.3 0.00 0.00 0.00 81 1015.6
20200530122918 27 128 3.2 12.9 0.00 0.00 0.00 82 1015.4
20200530121417 27 158 4.8 14.5 0.00 0.00 0.00 81 1015.3
20200530115905 27 154 6.4 16.1 0.00 0.00 0.00 83 1015.2
20200530114354 27 157 4.8 12.9 0.00 0.00 0.00 82 1015.2
20200530112356 26 160 6.4 16.1 0.00 0.00 0.00 84 1014.9
20200530110842 26 106 4.8 9.7 0.00 0.00 0.00 85 1014.9
20200530105330 26 146 3.2 9.7 0.00 0.00 0.00 85 1014.9
20200530103337 26 157 6.4 11.3 0.00 0.00 0.00 85 1014.7
20200530101354 25 138 4.8 16.1 0.00 0.00 0.00 86 1014.5
20200530095843 26 194 3.2 12.9 0.00 0.00 0.00 86 1014.3
20200530093911 26 186 6.4 16.1 0.00 0.00 0.00 85 1014.1
20200530092403 26 160 6.4 14.5 0.00 0.00 0.00 86 1014.2
20200530090855 26 179 9.7 22.5 0.00 0.00 0.00 86 1014.4
20200530085100 26 102 6.4 17.7 0.00 0.00 0.00 85 1014.4
20200530082839 26 34 9.7 14.5 0.00 0.00 0.00 85 1014.5
20200530080840 26 160 8.0 16.1 0.00 0.00 0.00 86 1014.8
20200530074838 26 139 9.7 17.7 0.00 0.00 0.00 88 1015.0
20200530073331 26 194 6.4 17.7 0.00 0.00 0.00 87 1015.0